Time;durP1;ratioP1;P1;durP2;ratioP2;P2;SDS_P1;SDS_P2;PMS_P1;PMS_P2;Temp;Humidity;BMP_temperature;BMP_pressure;BME280_temperature;BME280_humidity;BME280_pressure;Samples;Min_cycle;Max_cycle;Signal;HPM_P1;HPM_P2
2022/12/19 00:02:05;;;;;;;57.07;42.20;;;0.00;51.30;;;;;;20691;6719;298400;-72
2022/12/19 00:04:41;;;;;;;51.77;33.40;;;0.40;50.90;;;;;;20858;6731;117419;-72
2022/12/19 00:07:17;;;;;;;56.37;41.03;;;0.40;50.50;;;;;;20756;6716;277470;-72
2022/12/19 00:09:53;;;;;;;55.33;41.45;;;0.50;50.80;;;;;;20771;6716;276732;-72
2022/12/19 00:12:28;;;;;;;51.40;32.77;;;0.70;50.50;;;;;;20993;6716;117618;-72
2022/12/19 00:15:04;;;;;;;47.37;29.40;;;0.70;50.30;;;;;;20815;6731;127811;-73
2022/12/19 00:17:40;;;;;;;51.88;38.00;;;0.50;50.70;;;;;;20774;6718;306103;-72
2022/12/19 00:20:15;;;;;;;50.90;37.80;;;0.50;51.20;;;;;;20740;6723;305747;-72
2022/12/19 00:22:51;;;;;;;44.50;31.43;;;0.80;51.10;;;;;;20945;6722;117762;-73
2022/12/19 00:25:27;;;;;;;49.27;29.43;;;0.80;50.80;;;;;;20758;6744;118511;-72
2022/12/19 00:28:02;;;;;;;37.83;26.67;;;0.60;50.90;;;;;;20970;6722;119619;-72
2022/12/19 00:30:38;;;;;;;43.73;27.10;;;0.40;51.20;;;;;;20909;6737;117242;-74
2022/12/19 00:33:14;;;;;;;50.10;37.10;;;0.40;51.90;;;;;;20686;6737;306272;-72
2022/12/19 00:35:50;;;;;;;48.03;30.43;;;0.40;51.80;;;;;;20788;6737;118298;-73
2022/12/19 00:38:29;;;;;;;51.10;37.87;;;0.50;51.60;;;;;;20613;6760;308215;-73
2022/12/19 00:41:05;;;;;;;51.83;38.37;;;0.90;51.10;;;;;;20589;6766;306948;-73
2022/12/19 00:43:40;;;;;;;45.33;29.30;;;0.90;51.10;;;;;;20910;6739;117444;-73
2022/12/19 00:46:16;;;;;;;40.07;26.63;;;0.90;50.70;;;;;;20997;6724;117635;-73
2022/12/19 00:48:51;;;;;;;50.17;36.33;;;0.70;51.00;;;;;;20728;6724;306558;-74
2022/12/19 00:51:30;;;;;;;43.70;28.77;;;0.80;51.40;;;;;;20954;6724;117440;-73
2022/12/19 00:54:05;;;;;;;48.85;36.10;;;0.80;51.30;;;;;;20666;6739;307700;-73
2022/12/19 00:56:41;;;;;;;46.83;29.40;;;0.90;51.50;;;;;;20959;6724;117149;-73
2022/12/19 00:59:16;;;;;;;50.87;37.23;;;0.90;51.20;;;;;;20676;6739;306802;-74
2022/12/19 01:01:52;;;;;;;43.63;28.70;;;1.00;51.30;;;;;;20908;6740;118251;-74
2022/12/19 01:04:28;;;;;;;44.23;28.23;;;1.00;51.10;;;;;;20849;6740;117695;-74
2022/12/19 01:07:06;;;;;;;42.80;27.87;;;0.60;51.10;;;;;;20882;6738;117270;-73
2022/12/19 01:09:40;;;;;;;47.00;36.20;;;0.60;51.60;;;;;;20699;6738;337581;-73
2022/12/19 01:15:11;;;;;;;40.80;26.53;;;0.80;51.50;;;;;;20823;6722;118344;-74
2022/12/19 01:17:47;;;;;;;49.97;36.53;;;0.70;52.00;;;;;;20711;6737;306071;-74
2022/12/19 01:20:23;;;;;;;45.00;29.10;;;0.70;52.00;;;;;;20946;6727;117144;-74
2022/12/19 01:22:58;;;;;;;48.93;36.27;;;0.70;51.60;;;;;;20691;6737;307141;-73
2022/12/19 01:25:35;;;;;;;50.30;36.90;;;1.20;51.50;;;;;;20552;6737;282224;-74
2022/12/19 01:28:10;;;;;;;47.43;35.63;;;1.10;51.30;;;;;;20787;6713;306200;-74
2022/12/19 01:30:46;;;;;;;47.70;35.77;;;1.40;50.80;;;;;;20737;6728;282137;-74
2022/12/19 01:33:22;;;;;;;47.33;35.77;;;1.80;50.90;;;;;;20740;6724;285707;-74
2022/12/19 01:36:00;;;;;;;44.53;31.17;;;1.80;50.20;;;;;;20772;6724;117937;-74
2022/12/19 01:38:34;;;;;;;47.10;35.30;;;1.60;50.10;;;;;;20779;6714;306962;-74
2022/12/19 01:41:11;;;;;;;43.03;28.33;;;1.50;50.50;;;;;;20965;6714;117025;-73
2022/12/19 01:43:59;;;;;;;49.30;36.57;;;1.50;50.50;;;;;;20758;6714;310145;-73
2022/12/19 01:46:45;;;;;;;49.07;36.90;;;1.50;50.90;;;;;;20774;6714;306575;-73
2022/12/19 01:49:20;;;;;;;43.83;28.77;;;1.80;50.80;;;;;;20952;6719;117252;-73
2022/12/19 01:51:56;;;;;;;50.30;36.13;;;1.70;50.60;;;;;;20759;6720;278659;-73
2022/12/19 01:54:31;;;;;;;43.37;28.17;;;1.70;50.90;;;;;;20891;6720;119701;-73
2022/12/19 01:57:08;;;;;;;48.87;36.23;;;1.60;51.10;;;;;;20733;6724;280686;-73
2022/12/19 01:59:53;;;;;;;43.90;29.20;;;1.60;51.10;;;;;;20947;6724;117769;-73
2022/12/19 02:02:28;;;;;;;46.30;35.08;;;1.50;50.90;;;;;;20743;6724;305557;-72
2022/12/19 02:05:04;;;;;;;38.43;27.87;;;1.60;51.30;;;;;;20824;6729;145036;-73
2022/12/19 02:07:40;;;;;;;42.20;27.07;;;1.60;51.10;;;;;;20992;6714;117690;-72
2022/12/19 02:10:15;;;;;;;39.80;24.87;;;1.40;51.40;;;;;;20994;6714;117225;-72
2022/12/19 02:12:51;;;;;;;39.20;25.00;;;1.20;51.70;;;;;;20969;6714;144016;-72
2022/12/19 02:15:26;;;;;;;43.30;32.77;;;1.00;51.90;;;;;;20655;6714;308392;-72
2022/12/19 02:18:22;;;;;;;40.83;26.70;;;1.20;52.40;;;;;;20950;6729;117760;-73
2022/12/19 02:21:27;;;;;;;38.53;24.73;;;1.20;52.00;;;;;;20943;6724;117672;-73
2022/12/19 02:24:16;;;;;;;48.15;35.38;;;1.10;52.10;;;;;;20717;6723;311172;-74
2022/12/19 02:27:11;;;;;;;47.53;36.10;;;1.30;52.50;;;;;;20759;6713;338054;-74
2022/12/19 02:30:09;;;;;;;46.00;34.60;;;1.70;52.20;;;;;;20760;6713;336171;-73
2022/12/19 02:32:55;;;;;;;48.23;35.77;;;2.00;51.80;;;;;;20771;6714;315649;-73
2022/12/19 02:35:44;;;;;;;39.17;25.70;;;2.20;51.30;;;;;;20864;6714;119934;-73
2022/12/19 02:38:27;;;;;;;45.07;33.50;;;2.10;51.20;;;;;;20729;6729;306438;-73
2022/12/19 02:41:09;;;;;;;40.73;26.50;;;2.10;51.60;;;;;;20927;6729;117833;-73
2022/12/19 02:43:44;;;;;;;43.53;32.80;;;2.00;51.60;;;;;;20718;6729;277334;-73
2022/12/19 02:46:20;;;;;;;44.23;33.33;;;2.10;52.00;;;;;;20773;6714;306181;-73
2022/12/19 02:48:55;;;;;;;41.87;26.50;;;2.30;51.80;;;;;;20977;6714;117633;-73
2022/12/19 02:51:31;;;;;;;43.87;33.25;;;2.20;51.60;;;;;;20773;6714;335057;-73
2022/12/19 02:54:06;;;;;;;36.97;25.93;;;2.30;51.90;;;;;;20964;6714;117185;-73
2022/12/19 02:56:51;;;;;;;36.47;24.40;;;2.20;51.80;;;;;;20949;6729;117238;-73
2022/12/19 02:59:35;;;;;;;39.13;23.87;;;1.80;52.50;;;;;;20947;6723;117392;-73
2022/12/19 03:02:23;;;;;;;44.57;32.83;;;1.80;52.50;;;;;;20727;6724;308694;-73
2022/12/19 03:05:11;;;;;;;46.17;33.83;;;1.90;53.10;;;;;;20680;6711;279910;-74
2022/12/19 03:07:54;;;;;;;46.70;34.30;;;2.30;53.00;;;;;;20782;6711;317105;-74
2022/12/19 03:10:36;;;;;;;41.97;26.83;;;2.60;52.50;;;;;;20901;6741;117322;-73
2022/12/19 03:13:18;;;;;;;38.53;24.40;;;2.50;52.20;;;;;;20834;6784;118973;-73
2022/12/19 03:15:54;;;;;;;43.83;31.65;;;2.20;52.50;;;;;;20576;6729;279969;-74
2022/12/19 03:18:32;;;;;;;44.80;32.35;;;2.30;53.20;;;;;;20691;6729;278395;-73
2022/12/19 03:21:31;;;;;;;37.73;25.17;;;2.50;53.00;;;;;;20915;6733;117654;-73
2022/12/19 03:24:06;;;;;;;50.83;37.50;;;2.50;52.70;;;;;;20656;6729;308071;-73
2022/12/19 03:26:55;;;;;;;53.30;40.83;;;2.60;53.20;;;;;;20673;6745;307543;-73
2022/12/19 03:29:40;;;;;;;58.28;42.90;;;2.80;52.80;;;;;;20698;6739;277440;-74
2022/12/19 03:32:12;;;;;;;47.93;34.67;;;2.90;52.20;;;;;;20944;6730;122452;-74
2022/12/19 03:34:51;;;;;;;47.73;30.90;;;2.70;52.00;;;;;;20845;6729;121602;-74
2022/12/19 03:37:27;;;;;;;56.53;41.40;;;2.40;52.40;;;;;;20739;6725;292229;-73
2022/12/19 03:40:06;;;;;;;56.15;40.88;;;2.40;52.90;;;;;;20793;6713;305925;-73
2022/12/19 03:45:44;;;;;;;44.73;29.90;;;2.50;52.40;;;;;;20802;6723;117294;-74
2022/12/19 03:48:40;;;;;;;48.92;38.13;;;2.10;52.90;;;;;;20778;6714;276703;-73
2022/12/19 03:51:23;;;;;;;54.55;40.45;;;2.40;52.50;;;;;;20711;6728;277267;-74
2022/12/19 03:54:08;;;;;;;52.92;40.47;;;2.40;52.50;;;;;;20706;6729;308646;-74
2022/12/19 03:56:50;;;;;;;57.92;43.08;;;2.60;52.10;;;;;;20726;6728;308075;-74
2022/12/19 03:59:45;;;;;;;58.17;43.40;;;2.80;51.80;;;;;;20816;6714;278372;-73
2022/12/19 04:02:22;;;;;;;52.75;40.40;;;3.00;51.50;;;;;;20780;6714;278687;-74
2022/12/19 04:05:01;;;;;;;57.63;42.40;;;2.90;51.40;;;;;;20660;6720;281862;-74
2022/12/19 04:07:36;;;;;;;54.95;41.65;;;3.00;51.30;;;;;;20734;6728;278242;-73
2022/12/19 04:10:12;;;;;;;56.90;42.03;;;3.10;51.40;;;;;;20720;6728;280126;-74
2022/12/19 04:12:47;;;;;;;48.63;32.73;;;3.10;51.30;;;;;;20950;6729;117567;-75
2022/12/19 04:15:24;;;;;;;54.80;40.53;;;2.80;52.10;;;;;;20272;6842;309130;-74
2022/12/19 04:18:06;;;;;;;51.20;32.93;;;2.80;52.70;;;;;;20925;6731;117125;-74
2022/12/19 04:20:46;;;;;;;;;;;;;;;;;;;;;
2022/12/19 04:23:12;;;;;;;46.53;30.30;;;2.30;52.50;;;;;;20913;6729;117561;-74
2022/12/19 04:25:47;;;;;;;44.33;29.43;;;2.00;52.90;;;;;;20875;6714;117426;-74
2022/12/19 04:28:32;;;;;;;47.40;30.43;;;1.70;53.80;;;;;;20911;6729;118597;-76
2022/12/19 04:31:08;;;;;;;47.30;29.27;;;1.70;53.70;;;;;;20926;6723;117363;-75
2022/12/19 04:33:43;;;;;;;49.67;30.93;;;1.60;54.10;;;;;;20972;6714;119214;-73
2022/12/19 04:36:19;;;;;;;42.77;29.70;;;1.50;54.30;;;;;;20892;6744;117783;-73
2022/12/19 04:38:55;;;;;;;57.67;40.13;;;1.60;55.80;;;;;;20597;6755;280801;-73
2022/12/19 04:41:34;;;;;;;47.83;31.17;;;1.60;55.40;;;;;;20925;6743;118904;-73
2022/12/19 04:44:06;;;;;;;45.90;30.10;;;1.80;55.00;;;;;;20794;6758;119572;-73
2022/12/19 04:46:43;;;;;;;54.97;39.17;;;1.90;55.90;;;;;;20738;6728;306709;-73
2022/12/19 04:49:18;;;;;;;56.07;39.57;;;1.90;55.90;;;;;;20753;6728;289802;-73
2022/12/19 04:51:54;;;;;;;53.97;38.40;;;2.30;55.90;;;;;;20771;6728;277933;-72
2022/12/19 04:54:29;;;;;;;58.63;41.00;;;2.70;55.50;;;;;;20705;6728;281341;-73
2022/12/19 04:57:05;;;;;;;58.43;40.10;;;2.90;55.00;;;;;;20751;6728;308175;-74
2022/12/19 04:59:41;;;;;;;57.83;39.67;;;3.20;54.80;;;;;;20774;6728;276295;-73
2022/12/19 05:02:16;;;;;;;51.07;30.57;;;3.30;54.70;;;;;;20902;6743;117115;-73
2022/12/19 05:04:52;;;;;;;42.77;28.27;;;2.90;55.60;;;;;;20813;6743;117564;-73
2022/12/19 05:07:29;;;;;;;61.55;41.00;;;2.90;55.80;;;;;;20777;6714;337892;-76
2022/12/19 05:10:05;;;;;;;50.40;32.07;;;2.90;55.80;;;;;;20894;6743;117326;-73
2022/12/19 05:12:40;;;;;;;56.40;33.03;;;2.80;55.50;;;;;;20848;6758;117293;-73
2022/12/19 05:15:16;;;;;;;74.55;49.33;;;2.60;55.80;;;;;;20636;6719;307925;-73
2022/12/19 05:17:52;;;;;;;72.60;51.83;;;2.70;56.50;;;;;;20656;6753;292226;-73
2022/12/19 05:20:27;;;;;;;65.60;42.03;;;3.00;56.30;;;;;;20913;6743;117843;-73
2022/12/19 05:23:04;;;;;;;73.57;48.93;;;3.00;56.00;;;;;;20608;6758;307427;-72
2022/12/19 05:25:39;;;;;;;88.03;56.93;;;3.00;56.00;;;;;;20490;6758;341927;-73
2022/12/19 05:28:15;;;;;;;76.05;51.67;;;3.20;55.60;;;;;;20818;6714;305476;-73
2022/12/19 05:30:50;;;;;;;73.12;49.85;;;3.40;55.20;;;;;;20674;6737;305443;-73
2022/12/19 05:33:26;;;;;;;64.37;45.42;;;3.60;54.80;;;;;;20626;6759;337432;-73
2022/12/19 05:36:02;;;;;;;69.28;48.58;;;3.70;54.60;;;;;;20589;6726;337469;-74
2022/12/19 05:38:37;;;;;;;53.50;33.57;;;3.80;54.40;;;;;;20995;6711;118977;-73
2022/12/19 05:41:14;;;;;;;48.43;30.60;;;3.60;54.40;;;;;;20973;6711;119310;-73
2022/12/19 05:43:50;;;;;;;44.07;27.40;;;3.00;55.70;;;;;;20983;6711;117309;-74
2022/12/19 05:46:26;;;;;;;51.47;34.97;;;3.00;55.70;;;;;;20739;6729;329348;-73
2022/12/19 05:49:01;;;;;;;41.00;25.97;;;3.10;56.60;;;;;;20945;6724;117535;-74
2022/12/19 05:51:37;;;;;;;36.77;23.40;;;3.10;56.30;;;;;;20901;6741;117385;-74
2022/12/19 05:54:13;;;;;;;34.07;21.30;;;2.80;57.60;;;;;;20930;6729;118102;-74
2022/12/19 05:56:49;;;;;;;42.50;31.77;;;2.70;56.90;;;;;;20679;6741;315419;-73
2022/12/19 05:59:24;;;;;;;38.47;24.67;;;2.90;57.90;;;;;;20914;6741;117461;-74
2022/12/19 06:02:00;;;;;;;33.03;21.57;;;3.00;57.40;;;;;;20952;6726;117062;-73
2022/12/19 06:04:36;;;;;;;27.77;18.97;;;2.80;57.90;;;;;;20883;6726;117629;-73
2022/12/19 06:07:13;;;;;;;30.73;19.80;;;2.70;57.80;;;;;;20953;6722;122669;-74
2022/12/19 06:09:49;;;;;;;28.43;18.80;;;2.70;58.20;;;;;;20962;6722;119361;-75
2022/12/19 06:12:24;;;;;;;43.70;29.97;;;2.60;58.30;;;;;;20743;6726;305520;-73
2022/12/19 06:15:00;;;;;;;33.97;22.43;;;2.90;58.00;;;;;;20770;6741;117643;-74
2022/12/19 06:17:36;;;;;;;61.22;38.60;;;2.90;58.30;;;;;;20812;6711;334757;-75
2022/12/19 06:20:12;;;;;;;57.13;32.17;;;3.10;58.70;;;;;;20949;6726;117204;-75
2022/12/19 06:22:47;;;;;;;54.23;32.73;;;3.10;58.00;;;;;;20939;6726;119169;-77
2022/12/19 06:25:23;;;;;;;47.93;30.13;;;3.00;58.10;;;;;;20813;6728;117735;-73
2022/12/19 06:27:58;;;;;;;50.63;30.37;;;2.80;58.30;;;;;;20983;6769;117009;-76
2022/12/19 06:30:34;;;;;;;67.37;42.53;;;2.60;58.50;;;;;;20719;6732;278882;-77
2022/12/19 06:33:09;;;;;;;56.93;34.20;;;2.80;58.80;;;;;;20978;6714;116800;-76
2022/12/19 06:35:45;;;;;;;74.70;45.53;;;2.80;58.20;;;;;;20629;6711;307687;-74
2022/12/19 06:38:21;;;;;;;59.17;34.50;;;2.90;58.40;;;;;;20999;6724;117119;-75
2022/12/19 06:43:52;;;;;;;56.63;31.27;;;2.80;58.10;;;;;;20958;6722;117231;-75
2022/12/19 06:46:27;;;;;;;51.13;29.83;;;2.60;58.50;;;;;;20909;6744;118310;-73
2022/12/19 06:49:03;;;;;;;72.47;44.23;;;2.40;58.70;;;;;;20680;6743;277198;-73
2022/12/19 06:51:38;;;;;;;59.30;33.87;;;2.60;59.20;;;;;;20923;6736;117419;-74
2022/12/19 06:54:15;;;;;;;65.40;32.53;;;2.70;58.70;;;;;;20876;6739;117242;-76
2022/12/19 06:56:53;;;;;;;72.53;45.50;;;2.60;59.40;;;;;;20705;6733;278987;-79
2022/12/19 06:59:26;;;;;;;55.17;34.80;;;2.70;59.00;;;;;;20917;6735;117378;-76
2022/12/19 07:02:22;;;;;;;68.55;43.78;;;2.90;58.80;;;;;;20708;6735;331646;-77
2022/12/19 07:05:02;;;;;;;57.23;30.73;;;2.90;58.80;;;;;;20834;6735;119151;-75
2022/12/19 07:07:38;;;;;;;49.93;30.60;;;2.90;58.20;;;;;;20887;6750;117378;-74
2022/12/19 07:10:14;;;;;;;67.40;41.50;;;2.80;58.60;;;;;;20707;6735;332256;-76
2022/12/19 07:12:49;;;;;;;49.47;28.83;;;2.90;59.10;;;;;;20832;6758;117344;-77
2022/12/19 07:15:25;;;;;;;49.77;30.57;;;2.90;58.60;;;;;;20816;6743;117678;-74
2022/12/19 07:18:00;;;;;;;74.67;43.57;;;2.80;58.80;;;;;;20782;6715;305075;-75
2022/12/19 07:20:36;;;;;;;75.03;44.50;;;2.90;59.00;;;;;;20773;6713;335522;-74
2022/12/19 07:23:11;;;;;;;70.07;44.10;;;3.30;58.50;;;;;;20767;6714;283170;-79
2022/12/19 07:25:47;;;;;;;72.00;45.53;;;3.60;57.80;;;;;;20625;6713;280707;-76
2022/12/19 07:28:22;;;;;;;72.57;44.37;;;3.80;57.10;;;;;;20756;6723;335988;-73
2022/12/19 07:30:59;;;;;;;68.10;42.00;;;4.00;56.60;;;;;;20724;6728;278911;-73
2022/12/19 07:33:36;;;;;;;69.83;42.43;;;4.10;56.10;;;;;;20742;6728;277722;-73
2022/12/19 07:36:12;;;;;;;59.33;33.27;;;4.20;55.70;;;;;;20956;6728;117140;-73
2022/12/19 07:38:48;;;;;;;62.10;41.67;;;4.00;55.70;;;;;;20733;6729;307035;-73
2022/12/19 07:41:23;;;;;;;67.37;42.43;;;3.90;56.20;;;;;;20796;6720;276757;-74
2022/12/19 07:43:58;;;;;;;72.33;44.17;;;4.10;56.00;;;;;;20697;6729;309253;-79
2022/12/19 07:46:34;;;;;;;63.70;35.83;;;4.20;55.60;;;;;;20968;6721;117419;-73
2022/12/19 07:49:12;;;;;;;55.63;31.97;;;4.00;55.60;;;;;;20951;6729;117104;-74
2022/12/19 07:51:45;;;;;;;52.53;31.77;;;3.70;56.10;;;;;;20954;6724;118415;-76
2022/12/19 07:54:21;;;;;;;66.27;42.20;;;3.40;56.80;;;;;;20643;6741;288706;-75
2022/12/19 07:56:56;;;;;;;67.93;44.27;;;3.40;57.20;;;;;;20653;6739;306462;-77
2022/12/19 07:59:33;;;;;;;63.53;34.70;;;3.70;56.70;;;;;;20851;6754;118101;-74
2022/12/19 08:02:09;;;;;;;55.23;31.50;;;3.70;56.50;;;;;;20950;6724;117242;-73
2022/12/19 08:04:44;;;;;;;46.73;30.20;;;3.40;56.80;;;;;;20808;6739;119364;-75
2022/12/19 08:07:20;;;;;;;68.33;42.90;;;3.20;57.30;;;;;;20639;6743;287791;-74
2022/12/19 08:09:55;;;;;;;53.87;32.70;;;3.30;57.70;;;;;;20918;6729;121427;-74
2022/12/19 08:12:32;;;;;;;51.43;30.63;;;3.30;57.30;;;;;;20963;6729;118215;-74
2022/12/19 08:15:07;;;;;;;70.10;46.43;;;3.20;57.60;;;;;;20596;6729;278142;-75
2022/12/19 08:17:44;;;;;;;57.30;35.80;;;3.30;58.00;;;;;;20940;6729;117156;-74
2022/12/19 08:20:20;;;;;;;61.05;39.83;;;3.30;57.60;;;;;;20721;6729;307036;-74
2022/12/19 08:22:55;;;;;;;54.63;32.30;;;3.50;57.90;;;;;;20936;6723;118864;-75
2022/12/19 08:25:32;;;;;;;64.30;42.00;;;3.60;57.50;;;;;;20680;6711;301348;-74
2022/12/19 08:28:07;;;;;;;67.33;43.43;;;3.60;57.50;;;;;;20782;6711;337299;-74
2022/12/19 08:30:42;;;;;;;69.55;44.03;;;3.80;56.90;;;;;;20747;6726;308708;-74
2022/12/19 08:33:19;;;;;;;70.93;44.83;;;4.20;55.80;;;;;;20792;6711;334979;-74
2022/12/19 08:35:54;;;;;;;62.47;37.93;;;4.20;55.80;;;;;;20740;6740;118051;-73
2022/12/19 08:38:30;;;;;;;126.43;77.60;;;4.10;55.70;;;;;;20730;6735;320627;-74
2022/12/19 08:41:06;;;;;;;64.10;44.27;;;4.00;56.10;;;;;;20690;6735;334544;-74
2022/12/19 08:43:41;;;;;;;60.87;43.17;;;4.20;56.10;;;;;;20708;6735;307188;-72
2022/12/19 08:46:17;;;;;;;53.37;32.00;;;4.40;56.40;;;;;;21003;6715;117000;-73
2022/12/19 08:48:52;;;;;;;61.33;41.57;;;4.30;55.70;;;;;;20722;6728;306756;-73
2022/12/19 08:51:28;;;;;;;57.53;35.10;;;4.20;56.00;;;;;;20950;6724;119526;-74
2022/12/19 08:54:03;;;;;;;59.70;41.80;;;4.10;56.00;;;;;;20674;6739;309305;-75
2022/12/19 08:56:41;;;;;;;55.27;35.30;;;4.10;56.30;;;;;;20986;6729;118308;-74
2022/12/19 08:59:17;;;;;;;51.40;31.70;;;4.10;56.20;;;;;;20933;6729;119203;-75
2022/12/19 09:01:53;;;;;;;56.72;40.38;;;4.00;56.90;;;;;;20703;6730;336711;-74
2022/12/19 09:04:29;;;;;;;58.38;42.13;;;4.20;56.60;;;;;;20709;6714;337857;-74
2022/12/19 09:07:05;;;;;;;47.50;32.90;;;4.20;56.50;;;;;;20975;6714;142461;-74
2022/12/19 09:09:41;;;;;;;48.13;30.77;;;4.20;56.10;;;;;;20941;6729;117208;-77
2022/12/19 09:12:17;;;;;;;71.53;46.85;;;4.00;56.80;;;;;;20785;6714;307883;-74
2022/12/19 09:14:53;;;;;;;70.95;50.17;;;4.00;56.80;;;;;;20681;6714;342311;-73
2022/12/19 09:17:28;;;;;;;59.47;37.80;;;4.30;56.50;;;;;;20958;6729;117278;-74
2022/12/19 09:20:04;;;;;;;67.17;48.67;;;4.20;56.10;;;;;;20794;6714;306076;-74
2022/12/19 09:22:40;;;;;;;64.10;46.50;;;4.20;56.50;;;;;;20789;6714;306902;-74
2022/12/19 09:25:16;;;;;;;59.23;42.50;;;4.70;56.00;;;;;;20671;6714;309876;-73
2022/12/19 09:27:52;;;;;;;51.80;35.07;;;4.60;55.90;;;;;;20988;6714;118349;-72
2022/12/19 09:30:27;;;;;;;47.73;32.70;;;4.60;55.90;;;;;;20988;6714;117184;-72
2022/12/19 09:33:03;;;;;;;48.27;32.03;;;4.40;56.10;;;;;;20973;6713;117397;-73
2022/12/19 09:35:38;;;;;;;56.73;40.87;;;4.20;56.50;;;;;;20674;6713;278324;-73
2022/12/19 09:38:14;;;;;;;56.47;42.13;;;4.30;57.10;;;;;;20783;6713;307327;-72
2022/12/19 09:40:53;;;;;;;59.37;42.97;;;4.50;56.60;;;;;;20749;6713;279474;-72
2022/12/19 09:43:55;;;;;;;53.87;41.53;;;4.80;56.20;;;;;;20792;6714;299502;-73
2022/12/19 09:46:43;;;;;;;45.77;30.47;;;5.00;55.70;;;;;;20994;6714;117144;-72
2022/12/19 09:49:22;;;;;;;44.67;35.07;;;4.90;55.50;;;;;;20762;6713;306550;-72
2022/12/19 09:52:24;;;;;;;48.60;36.77;;;4.90;55.90;;;;;;20781;6714;278104;-72
2022/12/19 09:55:23;;;;;;;47.43;36.00;;;5.00;55.60;;;;;;20665;6714;309097;-72
2022/12/19 09:58:06;;;;;;;45.57;35.03;;;5.20;55.10;;;;;;20682;6742;309041;-73
2022/12/19 10:00:42;;;;;;;42.83;34.03;;;5.60;54.80;;;;;;20729;6729;325800;-74
2022/12/19 10:03:20;;;;;;;43.80;34.65;;;5.50;54.70;;;;;;20764;6711;306569;-73
2022/12/19 10:05:56;;;;;;;37.27;26.30;;;5.60;54.50;;;;;;20823;6711;117321;-73
2022/12/19 10:08:31;;;;;;;40.73;31.63;;;5.50;54.50;;;;;;20777;6714;337720;-72
2022/12/19 10:11:13;;;;;;;39.55;31.17;;;5.40;55.00;;;;;;20735;6723;305365;-72
2022/12/19 10:13:59;;;;;;;37.85;31.92;;;5.60;54.90;;;;;;20723;6724;336067;-74
2022/12/19 10:17:05;;;;;;;41.60;32.23;;;5.80;54.50;;;;;;20815;6714;305933;-73
2022/12/19 10:20:08;;;;;;;35.20;26.57;;;5.80;54.60;;;;;;20943;6730;117487;-74
2022/12/19 10:22:49;;;;;;;32.87;24.17;;;5.70;54.60;;;;;;20918;6738;118069;-73
2022/12/19 10:25:44;;;;;;;37.80;25.47;;;5.30;55.00;;;;;;20757;6759;119873;-74
2022/12/19 10:28:46;;;;;;;37.03;24.80;;;5.00;55.50;;;;;;20909;6740;117242;-74
2022/12/19 10:31:22;;;;;;;51.93;37.13;;;4.80;56.00;;;;;;20707;6738;306511;-74
2022/12/19 10:34:14;;;;;;;51.07;39.03;;;4.90;56.60;;;;;;20697;6740;288794;-74
2022/12/19 10:36:55;;;;;;;52.33;38.42;;;5.20;56.50;;;;;;20693;6744;277272;-74
2022/12/19 10:39:37;;;;;;;49.93;37.73;;;5.40;56.10;;;;;;20624;6759;307402;-74
2022/12/19 10:42:15;;;;;;;53.53;37.63;;;5.80;55.60;;;;;;20717;6783;307057;-74
2022/12/19 10:44:52;;;;;;;45.67;32.03;;;5.80;55.60;;;;;;20858;6728;119263;-74
2022/12/19 10:47:27;;;;;;;50.07;37.90;;;5.70;55.30;;;;;;20683;6740;310320;-74
2022/12/19 10:50:03;;;;;;;49.43;38.70;;;5.60;55.50;;;;;;20684;6742;276849;-74
2022/12/19 10:52:45;;;;;;;54.20;39.63;;;5.80;55.50;;;;;;20706;6738;303578;-74
2022/12/19 10:55:46;;;;;;;54.70;31.83;;;6.00;55.10;;;;;;20776;6738;117763;-75
2022/12/19 10:58:19;;;;;;;47.23;37.47;;;6.00;55.10;;;;;;20732;6729;314303;-75
2022/12/19 11:01:17;;;;;;;48.95;38.30;;;6.00;55.30;;;;;;20753;6715;334580;-75
2022/12/19 11:04:16;;;;;;;45.40;36.30;;;6.10;55.00;;;;;;20722;6730;305855;-75
2022/12/19 11:07:02;;;;;;;47.40;38.08;;;6.30;54.60;;;;;;20657;6749;336979;-75
2022/12/19 11:09:38;;;;;;;45.17;37.07;;;6.50;54.30;;;;;;20733;6730;277694;-75
2022/12/19 11:12:13;;;;;;;47.50;31.53;;;6.60;54.10;;;;;;20988;6715;118224;-74
2022/12/19 11:14:49;;;;;;;46.13;34.47;;;6.50;54.10;;;;;;20660;6723;337655;-75
2022/12/19 11:17:25;;;;;;;43.92;35.60;;;6.70;54.10;;;;;;20721;6730;336414;-75
2022/12/19 11:20:11;;;;;;;41.33;36.05;;;6.70;54.10;;;;;;20726;6730;277307;-75
2022/12/19 11:22:56;;;;;;;40.87;31.30;;;6.80;53.80;;;;;;20788;6787;118233;-75
2022/12/19 11:25:32;;;;;;;54.93;43.70;;;6.70;53.80;;;;;;20677;6716;310531;-75
2022/12/19 11:28:32;;;;;;;62.07;42.93;;;6.70;54.30;;;;;;20940;6731;123462;-75
2022/12/19 11:31:17;;;;;;;42.37;30.70;;;6.70;54.20;;;;;;20982;6714;122346;-76
2022/12/19 11:33:53;;;;;;;38.47;27.30;;;6.60;54.70;;;;;;20940;6724;117795;-74
2022/12/19 11:36:29;;;;;;;45.70;38.00;;;6.40;54.80;;;;;;20794;6714;293961;-73
2022/12/19 11:39:04;;;;;;;51.30;41.33;;;6.50;55.30;;;;;;20443;6770;305666;-74
2022/12/19 11:41:40;;;;;;;42.67;34.10;;;6.80;55.20;;;;;;20942;6729;118352;-73
2022/12/19 11:44:15;;;;;;;39.03;30.00;;;6.80;54.80;;;;;;20958;6714;117001;-73
2022/12/19 11:47:04;;;;;;;41.83;32.95;;;6.60;55.00;;;;;;20766;6714;305683;-74
2022/12/19 11:49:43;;;;;;;35.80;27.33;;;6.70;55.60;;;;;;20946;6729;119305;-73
2022/12/19 11:52:36;;;;;;;43.30;34.10;;;6.90;56.00;;;;;;20790;6711;305718;-73
2022/12/19 11:55:25;;;;;;;38.28;33.00;;;6.80;55.80;;;;;;20676;6711;297439;-73
2022/12/19 11:58:00;;;;;;;35.50;27.47;;;7.10;55.30;;;;;;21007;6711;117464;-73
2022/12/19 12:00:36;;;;;;;38.95;33.17;;;7.10;54.90;;;;;;20734;6726;306402;-72
2022/12/19 12:03:21;;;;;;;39.03;34.03;;;7.10;54.70;;;;;;20776;6711;305972;-73
2022/12/19 12:05:57;;;;;;;39.03;33.87;;;7.30;54.40;;;;;;20601;6726;278169;-73
2022/12/19 12:08:53;;;;;;;38.70;28.80;;;7.50;54.20;;;;;;20994;6728;117636;-73
2022/12/19 12:11:46;;;;;;;35.90;31.37;;;7.40;54.30;;;;;;20685;6723;276855;-73
2022/12/19 12:14:42;;;;;;;37.23;31.80;;;7.40;54.50;;;;;;20697;6724;307621;-75
2022/12/19 12:17:24;;;;;;;34.93;31.10;;;7.80;53.90;;;;;;20699;6726;297472;-71
2022/12/19 12:20:27;;;;;;;34.03;30.43;;;7.90;54.50;;;;;;20727;6725;306274;-71
2022/12/19 12:23:03;;;;;;;34.55;30.85;;;7.90;53.70;;;;;;20701;6729;306664;-71
2022/12/19 12:25:58;;;;;;;30.73;27.30;;;8.10;53.50;;;;;;20886;6714;117299;-71
2022/12/19 12:29:00;;;;;;;35.60;27.83;;;7.90;53.70;;;;;;20983;6714;117049;-72
2022/12/19 12:31:55;;;;;;;38.40;33.42;;;7.50;54.50;;;;;;20728;6729;277608;-73
2022/12/19 12:34:41;;;;;;;38.50;33.20;;;7.50;55.00;;;;;;20675;6723;308995;-72
2022/12/19 12:37:23;;;;;;;42.40;36.28;;;7.70;54.80;;;;;;20756;6715;292960;-72
2022/12/19 12:40:11;;;;;;;41.17;31.00;;;7.90;54.50;;;;;;20984;6715;117147;-72
2022/12/19 12:43:13;;;;;;;44.73;30.60;;;7.70;54.70;;;;;;20986;6715;117097;-72
2022/12/19 12:45:48;;;;;;;42.83;37.67;;;7.30;55.50;;;;;;20608;6715;336800;-73
2022/12/19 12:48:25;;;;;;;46.73;34.03;;;7.30;56.30;;;;;;21030;6714;118689;-72
2022/12/19 12:51:00;;;;;;;46.65;38.13;;;7.30;56.30;;;;;;20727;6723;276170;-71
2022/12/19 12:53:36;;;;;;;43.50;37.40;;;7.40;56.30;;;;;;20795;6714;276686;-72
2022/12/19 12:56:12;;;;;;;43.60;38.03;;;7.80;54.90;;;;;;20798;6714;309229;-71
2022/12/19 12:58:50;;;;;;;42.50;32.83;;;7.80;54.90;;;;;;21009;6714;117490;-71
2022/12/19 13:01:27;;;;;;;41.40;30.87;;;7.70;55.00;;;;;;21013;6709;117274;-71
2022/12/19 13:04:10;;;;;;;45.10;38.80;;;7.40;55.60;;;;;;20761;6711;310256;-70
2022/12/19 13:06:49;;;;;;;43.37;36.93;;;7.40;55.60;;;;;;20753;6729;306574;-71
2022/12/19 13:09:24;;;;;;;41.60;30.47;;;7.60;55.10;;;;;;20953;6723;117892;-71
2022/12/19 13:14:55;;;;;;;34.87;28.43;;;7.20;55.80;;;;;;20810;6738;127265;-71
2022/12/19 13:17:34;;;;;;;38.17;33.92;;;7.00;56.60;;;;;;20662;6793;333002;-71
2022/12/19 13:20:16;;;;;;;36.03;28.93;;;7.00;56.60;;;;;;20957;6722;117537;-71
2022/12/19 13:22:59;;;;;;;33.67;26.73;;;6.90;57.00;;;;;;20845;6793;119822;-70
2022/12/19 13:25:35;;;;;;;34.07;26.33;;;6.80;56.90;;;;;;20804;6722;118312;-70
2022/12/19 13:28:20;;;;;;;34.00;23.17;;;6.70;57.30;;;;;;20913;6737;117314;-74
2022/12/19 13:31:08;;;;;;;27.07;20.57;;;6.50;57.60;;;;;;20884;6739;117595;-71
2022/12/19 13:33:51;;;;;;;24.87;20.50;;;6.40;58.00;;;;;;20901;6741;117299;-71
2022/12/19 13:36:51;;;;;;;23.80;19.30;;;6.30;58.20;;;;;;20916;6739;117360;-71
2022/12/19 13:39:33;;;;;;;34.87;28.20;;;6.40;58.00;;;;;;20697;6739;309669;-71
2022/12/19 13:45:04;;;;;;;29.87;25.37;;;6.40;58.00;;;;;;20764;6735;117815;-72